createdAt,value
2022-11-24T00:00:48.057Z,101197.88
2022-11-24T00:03:18.787Z,101191.16
2022-11-24T00:05:49.680Z,101196.56
2022-11-24T00:08:20.208Z,101191.19
2022-11-24T00:10:50.943Z,101187.97
2022-11-24T00:13:21.399Z,101195.22
2022-11-24T00:15:52.357Z,101182.75
2022-11-24T00:18:23.063Z,101182.09
2022-11-24T00:20:55.111Z,101190.50
2022-11-24T00:23:28.370Z,101190.13
2022-11-24T00:26:06.413Z,101182.03
2022-11-24T00:28:37.440Z,101187.06
2022-11-24T00:31:19.131Z,101183.84
2022-11-24T00:33:51.408Z,101179.59
2022-11-24T00:36:23.395Z,101176.56
2022-11-24T00:39:02.037Z,101168.44
2022-11-24T00:41:33.101Z,101173.63
2022-11-24T00:44:04.265Z,101176.13
2022-11-24T00:46:38.697Z,101177.31
2022-11-24T00:49:09.956Z,101175.25
2022-11-24T00:51:40.653Z,101179.75
2022-11-24T00:54:12.005Z,101180.41
2022-11-24T00:56:42.512Z,101173.97
2022-11-24T00:59:13.349Z,101166.16
2022-11-24T01:01:44.046Z,101183.19
2022-11-24T01:04:14.581Z,101174.56
2022-11-24T01:06:45.445Z,101170.28
2022-11-24T01:09:15.985Z,101176.34
2022-11-24T01:12:02.913Z,101171.91
2022-11-24T01:14:34.167Z,101166.47
2022-11-24T01:17:06.111Z,101162.25
2022-11-24T01:19:36.861Z,101165.22
2022-11-24T01:22:07.701Z,101162.16
2022-11-24T01:24:38.500Z,101165.81
2022-11-24T01:27:08.849Z,101162.94
2022-11-24T01:29:40.091Z,101159.69
2022-11-24T01:32:10.293Z,101164.34
2022-11-24T01:34:40.796Z,101163.97
2022-11-24T01:37:11.508Z,101165.28
2022-11-24T01:39:42.133Z,101160.81
2022-11-24T01:42:12.961Z,101155.03
2022-11-24T01:44:43.493Z,101161.56
2022-11-24T01:47:32.865Z,101161.75
2022-11-24T01:50:04.865Z,101156.00
2022-11-24T01:52:40.387Z,101162.72
2022-11-24T01:55:16.328Z,101149.50
2022-11-24T01:57:54.158Z,101153.41
2022-11-24T02:00:24.848Z,101146.88
2022-11-24T02:02:55.410Z,101148.56
2022-11-24T02:05:32.589Z,101158.63
2022-11-24T02:08:03.820Z,101147.06
2022-11-24T02:10:35.422Z,101133.34
2022-11-24T02:13:06.221Z,101140.06
2022-11-24T02:15:37.912Z,101137.03
2022-11-24T02:18:08.422Z,101137.47
2022-11-24T02:20:39.803Z,101145.22
2022-11-24T02:23:26.718Z,101139.16
2022-11-24T02:26:16.857Z,101134.22
2022-11-24T02:28:48.441Z,101129.38
2022-11-24T02:31:18.918Z,101125.84
2022-11-24T02:33:51.895Z,101119.41
2022-11-24T02:36:22.339Z,101116.06
2022-11-24T02:38:53.088Z,101113.16
2022-11-24T02:41:24.660Z,101110.72
2022-11-24T02:44:01.532Z,101101.94
2022-11-24T02:46:32.441Z,101098.22
2022-11-24T02:49:03.360Z,101097.09
2022-11-24T02:51:35.470Z,101087.03
2022-11-24T02:54:05.769Z,101088.53
2022-11-24T02:56:36.059Z,101084.53
2022-11-24T02:59:06.690Z,101078.16
2022-11-24T03:01:37.016Z,101080.47
2022-11-24T03:04:08.897Z,101079.84
2022-11-24T03:06:39.724Z,101080.41
2022-11-24T03:09:11.820Z,101084.41
2022-11-24T03:11:43.255Z,101071.19
2022-11-24T03:14:14.066Z,101061.50
2022-11-24T03:16:44.854Z,101058.28
2022-11-24T03:19:15.679Z,101056.34
2022-11-24T03:21:46.331Z,101043.84
2022-11-24T03:24:17.168Z,101043.31
2022-11-24T03:26:49.755Z,101037.91
2022-11-24T03:29:20.056Z,101037.06
2022-11-24T03:31:50.731Z,101029.69
2022-11-24T03:34:21.350Z,101025.56
2022-11-24T03:36:52.509Z,101025.16
2022-11-24T03:39:24.459Z,101023.53
2022-11-24T03:41:55.308Z,101025.69
2022-11-24T03:44:26.256Z,101029.53
2022-11-24T03:46:56.647Z,101009.53
2022-11-24T03:49:27.729Z,101004.19
2022-11-24T03:52:00.645Z,100995.88
2022-11-24T03:54:36.644Z,100989.41
2022-11-24T03:57:07.203Z,100995.97
2022-11-24T03:59:37.501Z,100990.56
2022-11-24T04:02:08.793Z,100991.03
2022-11-24T04:04:39.540Z,100991.50
2022-11-24T04:07:10.607Z,100980.28
2022-11-24T04:09:41.676Z,100989.03
2022-11-24T04:12:30.957Z,100981.97
2022-11-24T04:15:01.168Z,100978.72
2022-11-24T04:17:34.052Z,100972.91
2022-11-24T04:20:04.683Z,100962.91
2022-11-24T04:22:37.734Z,100961.03
2022-11-24T04:25:09.603Z,100958.38
2022-11-24T04:27:40.216Z,100960.91
2022-11-24T04:30:11.776Z,100953.81
2022-11-24T04:32:42.643Z,100951.97
2022-11-24T04:35:13.865Z,100946.75
2022-11-24T04:37:44.481Z,100950.88
2022-11-24T04:40:15.848Z,100944.63
2022-11-24T04:42:53.123Z,100933.75
2022-11-24T04:45:24.546Z,100942.75
2022-11-24T04:47:55.131Z,100934.41
2022-11-24T04:50:26.199Z,100921.28
2022-11-24T04:52:56.569Z,100926.31
2022-11-24T04:55:27.226Z,100918.88
2022-11-24T04:57:59.159Z,100905.53
2022-11-24T05:00:29.604Z,100908.47
2022-11-24T05:03:01.324Z,100906.59
2022-11-24T05:05:31.903Z,100898.03
2022-11-24T05:08:02.933Z,100893.03
2022-11-24T05:10:36.634Z,100895.09
2022-11-24T05:13:11.532Z,100898.88
2022-11-24T05:15:43.032Z,100882.16
2022-11-24T05:18:16.243Z,100889.94
2022-11-24T05:20:46.977Z,100887.19
2022-11-24T05:23:17.858Z,100888.66
2022-11-24T05:25:52.080Z,100883.66
2022-11-24T05:28:23.318Z,100875.94
2022-11-24T05:30:54.208Z,100872.16
2022-11-24T05:33:25.123Z,100865.47
2022-11-24T05:35:56.157Z,100863.41
2022-11-24T05:38:27.627Z,100866.75
2022-11-24T05:41:05.936Z,100869.66
2022-11-24T05:43:39.891Z,100864.28
2022-11-24T05:46:10.457Z,100869.25
2022-11-24T05:48:41.049Z,100866.31
2022-11-24T05:51:12.063Z,100855.88
2022-11-24T05:53:42.597Z,100858.84
2022-11-24T05:56:12.987Z,100851.31
2022-11-24T05:58:44.672Z,100857.13
2022-11-24T06:01:15.556Z,100854.41
2022-11-24T06:03:46.593Z,100848.94
2022-11-24T06:06:17.173Z,100849.16
2022-11-24T06:08:48.103Z,100843.88
2022-11-24T06:11:19.031Z,100850.97
2022-11-24T06:13:49.943Z,100841.53
2022-11-24T06:16:22.432Z,100839.19
2022-11-24T06:18:52.778Z,100831.59
2022-11-24T06:21:23.321Z,100830.13
2022-11-24T06:23:54.380Z,100840.94
2022-11-24T06:26:25.106Z,100827.91
2022-11-24T06:28:55.718Z,100819.09
2022-11-24T06:31:27.393Z,100829.91
2022-11-24T06:33:58.649Z,100823.91
2022-11-24T06:36:29.638Z,100820.53
2022-11-24T06:39:03.232Z,100827.91
2022-11-24T06:41:34.355Z,100829.22
2022-11-24T06:44:05.973Z,100830.56
2022-11-24T06:46:37.907Z,100832.72
2022-11-24T06:49:08.479Z,100839.25
2022-11-24T06:51:39.413Z,100836.97
2022-11-24T06:54:16.674Z,100836.16
2022-11-24T06:56:47.308Z,100837.88
2022-11-24T06:59:21.103Z,100834.13
2022-11-24T07:01:51.774Z,100830.59
2022-11-24T07:04:22.486Z,100831.00
2022-11-24T07:06:52.971Z,100842.94
2022-11-24T07:09:23.831Z,100839.00
2022-11-24T07:11:57.615Z,100830.41
2022-11-24T07:14:27.905Z,100830.22
2022-11-24T07:16:58.781Z,100830.44
2022-11-24T07:19:29.507Z,100832.91
2022-11-24T07:22:00.325Z,100827.50
2022-11-24T07:24:31.527Z,100823.34
2022-11-24T07:27:02.242Z,100829.59
2022-11-24T07:29:33.110Z,100837.53
2022-11-24T07:32:05.654Z,100840.88
2022-11-24T07:34:38.629Z,100839.22
2022-11-24T07:37:10.123Z,100850.06
2022-11-24T07:39:40.942Z,100848.41
2022-11-24T07:42:12.474Z,100858.00
2022-11-24T07:44:43.346Z,100858.41
2022-11-24T07:47:14.040Z,100852.13
2022-11-24T07:49:44.797Z,100850.88
2022-11-24T07:52:15.444Z,100852.97
2022-11-24T07:54:46.525Z,100851.09
2022-11-24T07:57:17.285Z,100857.16
2022-11-24T07:59:48.128Z,100856.09
2022-11-24T08:02:18.700Z,100860.91
2022-11-24T08:04:49.401Z,100859.63
2022-11-24T08:07:20.348Z,100855.41
2022-11-24T08:09:51.546Z,100863.78
2022-11-24T08:12:24.573Z,100872.09
2022-11-24T08:14:55.456Z,100870.66
2022-11-24T08:17:26.633Z,100873.34
2022-11-24T08:19:57.774Z,100871.69
2022-11-24T08:22:28.056Z,100877.09
2022-11-24T08:24:58.656Z,100879.19
2022-11-24T08:27:29.282Z,100885.66
2022-11-24T08:30:00.589Z,100890.44
2022-11-24T08:32:32.326Z,100895.22
2022-11-24T08:35:13.734Z,100901.69
2022-11-24T08:37:45.124Z,100909.59
2022-11-24T08:40:16.263Z,100906.88
2022-11-24T08:42:47.130Z,100911.66
2022-11-24T08:45:21.209Z,100917.09
2022-11-24T08:47:58.510Z,100930.63
2022-11-24T08:50:29.372Z,100928.75
2022-11-24T08:52:59.946Z,100924.59
2022-11-24T08:55:31.458Z,100934.16
2022-11-24T08:58:02.039Z,100932.91
2022-11-24T09:00:32.321Z,100949.97
2022-11-24T09:03:03.987Z,100949.97
2022-11-24T09:08:25.103Z,100952.25
2022-11-24T09:10:56.115Z,100952.25
2022-11-24T09:13:26.661Z,100951.22
2022-11-24T09:16:05.496Z,100957.44
2022-11-24T09:18:36.619Z,100956.63
2022-11-24T09:21:19.672Z,100963.91
2022-11-24T09:23:52.214Z,100967.00
2022-11-24T09:26:25.718Z,100971.13
2022-11-24T09:28:57.751Z,100974.88
2022-11-24T09:31:31.599Z,100984.03
2022-11-24T09:34:04.187Z,100986.09
2022-11-24T09:36:35.330Z,100996.50
2022-11-24T09:39:06.827Z,100997.72
2022-11-24T09:41:58.520Z,100998.13
2022-11-24T09:44:47.084Z,101007.53
2022-11-24T09:47:35.790Z,101019.41
2022-11-24T09:50:23.383Z,101009.59
2022-11-24T09:53:13.289Z,101005.59
2022-11-24T09:55:58.732Z,101011.03
2022-11-24T09:58:46.311Z,101013.50
2022-11-24T10:01:42.076Z,101006.78
2022-11-24T10:04:23.951Z,101009.50
2022-11-24T10:07:13.236Z,101006.41
2022-11-24T10:09:50.373Z,101006.75
2022-11-24T10:12:51.259Z,101014.09
2022-11-24T10:15:35.869Z,101019.28
2022-11-24T10:18:31.271Z,101018.66
2022-11-24T10:21:38.920Z,101012.59
2022-11-24T10:24:41.284Z,101010.28
2022-11-24T10:27:22.987Z,101004.25
2022-11-24T10:29:54.483Z,101010.91
2022-11-24T10:32:29.596Z,101006.69
2022-11-24T10:35:18.203Z,101017.09
2022-11-24T10:38:23.798Z,101024.75
2022-11-24T10:41:11.894Z,101027.28
2022-11-24T10:43:43.221Z,101027.84
2022-11-24T10:46:21.063Z,101032.88
2022-11-24T10:49:03.954Z,101042.03
2022-11-24T10:51:46.948Z,101046.63
2022-11-24T10:54:20.504Z,101046.53
2022-11-24T10:56:54.521Z,101052.34
2022-11-24T10:59:40.329Z,101059.44
2022-11-24T11:02:43.100Z,101063.56
2022-11-24T11:05:29.571Z,101056.47
2022-11-24T11:08:23.020Z,101064.34
2022-11-24T11:11:31.418Z,101077.66
2022-11-24T11:14:04.939Z,101085.50
2022-11-24T11:16:55.585Z,101085.97
2022-11-24T11:19:50.883Z,101085.91
2022-11-24T11:22:29.076Z,101087.41
2022-11-24T11:25:24.246Z,101091.78
2022-11-24T11:28:23.665Z,101096.72
2022-11-24T11:34:12.495Z,101095.03
2022-11-24T11:36:51.094Z,101106.84
2022-11-24T11:39:36.837Z,101102.06
2022-11-24T11:42:53.634Z,101109.06
2022-11-24T11:45:42.514Z,101108.25
2022-11-24T11:48:16.257Z,101106.56
2022-11-24T11:51:21.859Z,101110.69
2022-11-24T11:53:47.470Z,101118.97
2022-11-24T11:56:18.055Z,101115.44
2022-11-24T11:59:13.747Z,101119.34
2022-11-24T12:02:06.455Z,101128.97
2022-11-24T12:04:51.817Z,101130.19
2022-11-24T12:07:48.985Z,101135.53
2022-11-24T12:10:33.525Z,101128.50
2022-11-24T12:13:36.891Z,101138.00
2022-11-24T12:16:39.881Z,101144.06
2022-11-24T12:19:16.211Z,101139.03
2022-11-24T12:22:02.347Z,101142.84
2022-11-24T12:24:52.845Z,101145.38
2022-11-24T12:27:33.337Z,101148.13
2022-11-24T12:30:15.134Z,101144.59
2022-11-24T12:33:26.945Z,101152.78
2022-11-24T12:36:15.547Z,101150.00
2022-11-24T12:38:54.808Z,101140.38
2022-11-24T12:41:50.650Z,101155.03
2022-11-24T12:44:27.628Z,101151.31
2022-11-24T12:47:14.958Z,101152.97
2022-11-24T12:50:09.303Z,101160.06
2022-11-24T12:52:52.878Z,101158.78
2022-11-24T12:55:26.731Z,101162.13
2022-11-24T12:58:12.702Z,101163.34
2022-11-24T13:01:02.534Z,101165.88
2022-11-24T13:03:53.263Z,101162.78
2022-11-24T13:06:32.037Z,101169.59
2022-11-24T13:09:13.803Z,101176.03
2022-11-24T13:11:50.904Z,101164.56
2022-11-24T13:14:34.285Z,101160.84
2022-11-24T13:17:39.703Z,101160.84
2022-11-24T13:20:21.014Z,101174.09
2022-11-24T13:22:57.483Z,101174.09
2022-11-24T13:25:41.634Z,101174.09
2022-11-24T13:29:01.753Z,101165.59
2022-11-24T13:31:36.953Z,101159.91
2022-11-24T13:34:56.002Z,101159.53
2022-11-24T13:37:33.974Z,101148.63
2022-11-24T13:40:15.545Z,101149.09
2022-11-24T13:43:06.988Z,101147.41
2022-11-24T13:45:40.704Z,101141.91
2022-11-24T13:48:21.157Z,101148.81
2022-11-24T13:50:55.733Z,101149.84
2022-11-24T13:53:47.130Z,101155.28
2022-11-24T13:56:17.515Z,101165.22
2022-11-24T13:58:51.932Z,101162.72
2022-11-24T14:01:30.506Z,101155.28
2022-11-24T14:04:32.640Z,101150.41
2022-11-24T14:07:09.717Z,101165.63
2022-11-24T14:09:46.469Z,101154.34
2022-11-24T14:12:19.998Z,101157.97
2022-11-24T14:14:52.685Z,101157.97
2022-11-24T14:17:24.704Z,101166.09
2022-11-24T14:19:57.352Z,101169.78
2022-11-24T14:22:36.415Z,101174.75
2022-11-24T14:25:09.683Z,101170.38
2022-11-24T14:27:41.027Z,101163.28
2022-11-24T14:30:11.343Z,101172.88
2022-11-24T14:32:43.235Z,101172.44
2022-11-24T14:35:29.709Z,101181.09
2022-11-24T14:38:04.802Z,101174.47
2022-11-24T14:40:43.633Z,101169.25
2022-11-24T14:43:30.060Z,101177.19
2022-11-24T14:46:03.903Z,101169.44
2022-11-24T14:48:39.155Z,101160.69
2022-11-24T14:51:13.220Z,101170.19
2022-11-24T14:53:48.255Z,101173.56
2022-11-24T14:56:29.666Z,101179.16
2022-11-24T14:59:00.805Z,101177.28
2022-11-24T15:01:34.450Z,101175.59
2022-11-24T15:04:38.811Z,101174.19
2022-11-24T15:07:27.757Z,101175.59
2022-11-24T15:10:00.502Z,101172.25
2022-11-24T15:12:37.883Z,101168.50
2022-11-24T15:15:33.067Z,101166.47
2022-11-24T15:18:04.809Z,101172.25
2022-11-24T15:20:38.844Z,101171.41
2022-11-24T15:23:25.839Z,101167.69
2022-11-24T15:26:06.004Z,101163.31
2022-11-24T15:28:36.549Z,101161.81
2022-11-24T15:31:11.099Z,101165.91
2022-11-24T15:33:43.445Z,101173.19
2022-11-24T15:36:15.844Z,101175.03
2022-11-24T15:38:46.998Z,101162.91
2022-11-24T15:41:22.297Z,101165.63
2022-11-24T15:43:59.807Z,101174.59
2022-11-24T15:46:40.629Z,101166.66
2022-11-24T15:49:11.554Z,101163.28
2022-11-24T15:51:45.172Z,101162.00
2022-11-24T15:54:19.522Z,101164.69
2022-11-24T15:56:49.853Z,101162.34
2022-11-24T15:59:21.260Z,101166.09
2022-11-24T16:01:52.877Z,101169.56
2022-11-24T16:04:23.988Z,101166.97
2022-11-24T16:06:54.902Z,101169.00
2022-11-24T16:09:25.435Z,101162.56
2022-11-24T16:11:55.694Z,101166.66
2022-11-24T16:14:28.646Z,101169.72
2022-11-24T16:16:59.119Z,101166.22
2022-11-24T16:19:30.179Z,101163.31
2022-11-24T16:22:00.412Z,101163.06
2022-11-24T16:24:30.814Z,101159.84
2022-11-24T16:27:01.358Z,101161.75
2022-11-24T16:29:36.875Z,101162.75
2022-11-24T16:32:20.096Z,101162.25
2022-11-24T16:34:50.787Z,101159.94
2022-11-24T16:37:24.477Z,101152.56
2022-11-24T16:39:55.279Z,101145.69
2022-11-24T16:42:26.030Z,101135.03
2022-11-24T16:44:56.858Z,101127.78
2022-11-24T16:47:27.123Z,101121.91
2022-11-24T16:49:57.692Z,101121.41
2022-11-24T16:52:28.452Z,101121.91
2022-11-24T16:54:59.152Z,101120.56
2022-11-24T16:57:30.029Z,101114.00
2022-11-24T17:00:01.057Z,101113.81
2022-11-24T17:02:31.967Z,101107.06
2022-11-24T17:05:03.304Z,101111.31
2022-11-24T17:07:34.487Z,101112.31
2022-11-24T17:10:05.632Z,101112.66
2022-11-24T17:12:37.734Z,101109.09
2022-11-24T17:18:23.530Z,101107.41
2022-11-24T17:20:51.530Z,101106.59
2022-11-24T17:23:22.516Z,101104.25
2022-11-24T17:25:53.066Z,101109.00
2022-11-24T17:28:23.972Z,101109.16
2022-11-24T17:30:54.948Z,101107.50
2022-11-24T17:33:25.809Z,101113.53
2022-11-24T17:35:56.252Z,101106.66
2022-11-24T17:38:26.698Z,101108.72
2022-11-24T17:40:58.545Z,101106.19
2022-11-24T17:43:31.765Z,101105.88
2022-11-24T17:46:03.620Z,101110.09
2022-11-24T17:48:34.532Z,101104.41
2022-11-24T17:51:08.758Z,101104.75
2022-11-24T17:53:40.950Z,101104.03
2022-11-24T17:56:19.322Z,101102.16
2022-11-24T17:58:50.353Z,101097.31
2022-11-24T18:01:21.043Z,101107.25
2022-11-24T18:03:53.641Z,101108.13
2022-11-24T18:06:26.211Z,101105.56
2022-11-24T18:08:59.183Z,101106.44
2022-11-24T18:11:32.178Z,101116.56
2022-11-24T18:14:04.999Z,101128.75
2022-11-24T18:16:36.483Z,101134.16
2022-11-24T18:19:11.505Z,101132.09
2022-11-24T18:21:45.678Z,101125.19
2022-11-24T18:24:19.780Z,101122.03
2022-11-24T18:26:54.237Z,101133.66
2022-11-24T18:29:24.781Z,101135.72
2022-11-24T18:31:55.259Z,101122.03
2022-11-24T18:34:27.080Z,101118.31
2022-11-24T18:36:58.485Z,101108.53
2022-11-24T18:39:30.458Z,101108.53
2022-11-24T18:42:00.913Z,101099.97
2022-11-24T18:44:31.846Z,101104.50
2022-11-24T18:47:02.877Z,101118.72
2022-11-24T18:49:33.293Z,101120.03
2022-11-24T18:52:03.909Z,101117.72
2022-11-24T18:54:35.177Z,101124.13
2022-11-24T18:57:06.218Z,101122.63
2022-11-24T18:59:37.759Z,101121.78
2022-11-24T19:02:08.184Z,101121.41
2022-11-24T19:04:39.525Z,101128.84
2022-11-24T19:07:10.177Z,101130.22
2022-11-24T19:09:40.759Z,101122.13
2022-11-24T19:12:11.742Z,101126.69
2022-11-24T19:14:42.583Z,101130.75
2022-11-24T19:17:13.394Z,101126.84
2022-11-24T19:19:44.157Z,101138.66
2022-11-24T19:22:16.739Z,101125.34
2022-11-24T19:24:47.981Z,101123.84
2022-11-24T19:27:19.586Z,101114.06
2022-11-24T19:29:50.023Z,101097.22
2022-11-24T19:32:20.486Z,101100.75
2022-11-24T19:34:50.879Z,101103.47
2022-11-24T19:37:22.427Z,101107.34
2022-11-24T19:39:53.349Z,101112.72
2022-11-24T19:42:26.789Z,101132.63
2022-11-24T19:44:57.895Z,101120.53
2022-11-24T19:47:29.593Z,101132.97
2022-11-24T19:49:59.909Z,101125.25
2022-11-24T19:52:31.100Z,101127.78
2022-11-24T19:55:01.661Z,101133.34
2022-11-24T19:57:33.605Z,101132.53
2022-11-24T20:00:04.569Z,101120.88
2022-11-24T20:02:35.523Z,101127.47
2022-11-24T20:05:09.063Z,101131.66
2022-11-24T20:07:42.271Z,101132.00
2022-11-24T20:10:12.949Z,101134.19
2022-11-24T20:12:44.090Z,101139.94
2022-11-24T20:15:15.293Z,101135.38
2022-11-24T20:17:46.009Z,101134.56
2022-11-24T20:20:24.196Z,101121.22
2022-11-24T20:22:54.840Z,101122.91
2022-11-24T20:25:28.670Z,101115.47
2022-11-24T20:27:58.889Z,101115.00
2022-11-24T20:30:29.768Z,101119.91
2022-11-24T20:33:01.099Z,101115.16
2022-11-24T20:35:31.644Z,101116.53
2022-11-24T20:38:02.102Z,101115.72
2022-11-24T20:40:32.831Z,101109.47
2022-11-24T20:43:03.430Z,101117.41
2022-11-24T20:45:34.269Z,101121.41
2022-11-24T20:48:04.938Z,101129.00
2022-11-24T20:50:39.030Z,101122.94
2022-11-24T20:53:10.219Z,101124.81
2022-11-24T20:55:40.465Z,101128.34
2022-11-24T20:58:20.236Z,101130.88
2022-11-24T21:00:51.321Z,101139.13
2022-11-24T21:03:21.812Z,101144.72
2022-11-24T21:05:56.875Z,101155.97
2022-11-24T21:08:30.630Z,101142.50
2022-11-24T21:11:01.887Z,101152.25
2022-11-24T21:13:36.623Z,101149.25
2022-11-24T21:16:15.967Z,101153.63
2022-11-24T21:18:48.480Z,101152.13
2022-11-24T21:21:20.712Z,101157.03
2022-11-24T21:23:52.231Z,101166.13
2022-11-24T21:26:23.196Z,101164.44
2022-11-24T21:28:53.840Z,101166.13
2022-11-24T21:31:27.530Z,101163.63
2022-11-24T21:33:59.851Z,101164.78
2022-11-24T21:36:30.454Z,101151.97
2022-11-24T21:39:01.390Z,101147.59
2022-11-24T21:41:34.238Z,101147.25
2022-11-24T21:44:04.854Z,101154.00
2022-11-24T21:46:44.130Z,101154.34
2022-11-24T21:49:37.128Z,101169.88
2022-11-24T21:52:07.402Z,101174.25
2022-11-24T21:54:37.786Z,101176.09
2022-11-24T21:57:08.170Z,101175.63
2022-11-24T21:59:41.892Z,101174.97
2022-11-24T22:02:13.962Z,101193.16
2022-11-24T22:04:44.697Z,101194.00
2022-11-24T22:07:15.254Z,101197.69
2022-11-24T22:09:47.706Z,101207.78
2022-11-24T22:12:18.341Z,101210.34
2022-11-24T22:14:51.529Z,101208.63
2022-11-24T22:17:24.246Z,101214.53
2022-11-24T22:19:54.775Z,101213.69
2022-11-24T22:22:25.691Z,101218.75
2022-11-24T22:24:59.716Z,101217.41
2022-11-24T22:27:31.086Z,101220.78
2022-11-24T22:30:01.741Z,101230.69
2022-11-24T22:32:31.925Z,101229.88
2022-11-24T22:35:03.722Z,101231.22
2022-11-24T22:37:34.563Z,101227.50
2022-11-24T22:40:06.710Z,101225.81
2022-11-24T22:42:38.202Z,101224.81
2022-11-24T22:45:09.304Z,101232.22
2022-11-24T22:47:39.864Z,101233.91
2022-11-24T22:50:11.069Z,101227.00
2022-11-24T22:52:41.826Z,101235.59
2022-11-24T22:55:12.503Z,101249.41
2022-11-24T22:57:47.439Z,101256.31
2022-11-24T23:00:19.492Z,101258.50
2022-11-24T23:02:49.997Z,101269.63
2022-11-24T23:05:21.598Z,101284.13
2022-11-24T23:07:52.852Z,101278.22
2022-11-24T23:10:23.295Z,101274.50
2022-11-24T23:12:55.541Z,101284.47
2022-11-24T23:15:26.111Z,101283.09
2022-11-24T23:17:57.456Z,101288.50
2022-11-24T23:20:28.290Z,101296.06
2022-11-24T23:22:59.893Z,101303.66
2022-11-24T23:25:31.662Z,101315.59
2022-11-24T23:28:02.768Z,101319.81
2022-11-24T23:30:33.315Z,101326.72
2022-11-24T23:33:03.847Z,101321.16
2022-11-24T23:35:37.323Z,101329.94
2022-11-24T23:38:08.210Z,101329.63
2022-11-24T23:40:38.896Z,101322.56
2022-11-24T23:43:09.675Z,101331.94
2022-11-24T23:45:39.944Z,101327.75
2022-11-24T23:48:10.505Z,101335.63
2022-11-24T23:50:41.570Z,101334.94
2022-11-24T23:53:11.797Z,101345.06
2022-11-24T23:55:43.170Z,101352.81
2022-11-24T23:58:13.972Z,101357.88
